createdAt,value
2022-12-11T00:00:05.352Z,100985.09
2022-12-11T00:02:31.957Z,100977.97
2022-12-11T00:04:58.434Z,100975.06
2022-12-11T00:07:25.229Z,100969.53
2022-12-11T00:09:51.721Z,100971.06
2022-12-11T00:12:18.135Z,100969.53
2022-12-11T00:14:44.582Z,100974.88
2022-12-11T00:17:11.086Z,100955.41
2022-12-11T00:19:37.611Z,100967.47
2022-12-11T00:22:04.527Z,100964.28
2022-12-11T00:24:31.086Z,100966.38
2022-12-11T00:26:57.688Z,100969.88
2022-12-11T00:29:24.064Z,100963.81
2022-12-11T00:31:50.642Z,100966.31
2022-12-11T00:34:17.591Z,100963.41
2022-12-11T00:36:44.141Z,100962.84
2022-12-11T00:39:10.626Z,100958.47
2022-12-11T00:41:37.093Z,100958.22
2022-12-11T00:44:03.708Z,100957.78
2022-12-11T00:46:30.297Z,100954.13
2022-12-11T00:48:57.267Z,100960.94
2022-12-11T00:51:24.786Z,100957.34
2022-12-11T00:53:52.218Z,100964.34
2022-12-11T00:56:20.690Z,100953.13
2022-12-11T00:58:47.993Z,100956.63
2022-12-11T01:01:21.416Z,100958.56
2022-12-11T01:03:48.496Z,100953.16
2022-12-11T01:06:24.265Z,100964.41
2022-12-11T01:09:13.493Z,100960.19
2022-12-11T01:11:41.702Z,100967.56
2022-12-11T01:14:12.637Z,100962.56
2022-12-11T01:16:39.247Z,100970.06
2022-12-11T01:19:05.833Z,100966.38
2022-12-11T01:21:32.264Z,100968.69
2022-12-11T01:23:58.715Z,100962.53
2022-12-11T01:26:25.143Z,100966.78
2022-12-11T01:28:51.883Z,100974.66
2022-12-11T01:31:19.918Z,100970.66
2022-12-11T01:33:46.747Z,100970.09
2022-12-11T01:36:19.347Z,100976.59
2022-12-11T01:38:47.342Z,100971.88
2022-12-11T01:41:14.123Z,100973.84
2022-12-11T01:43:56.692Z,100968.44
2022-12-11T01:46:23.601Z,100979.19
2022-12-11T01:48:50.127Z,100974.59
2022-12-11T01:51:16.893Z,100975.03
2022-12-11T01:53:49.169Z,100974.53
2022-12-11T01:56:15.666Z,100971.66
2022-12-11T01:58:46.976Z,100961.44
2022-12-11T02:01:18.989Z,100967.34
2022-12-11T02:03:45.679Z,100968.00
2022-12-11T02:06:33.033Z,100966.47
2022-12-11T02:09:00.076Z,100961.78
2022-12-11T02:11:33.645Z,100965.34
2022-12-11T02:14:10.292Z,100964.09
2022-12-11T02:16:45.919Z,100959.16
2022-12-11T02:19:18.675Z,100962.97
2022-12-11T02:21:49.766Z,100960.00
2022-12-11T02:24:34.328Z,100963.97
2022-12-11T02:27:39.321Z,100972.66
2022-12-11T02:30:10.157Z,100966.28
2022-12-11T02:32:55.800Z,100971.47
2022-12-11T02:35:23.974Z,100966.19
2022-12-11T02:37:57.492Z,100966.88
2022-12-11T02:40:28.730Z,100961.34
2022-12-11T02:42:56.677Z,100966.06
2022-12-11T02:45:24.398Z,100950.97
2022-12-11T02:47:51.590Z,100955.84
2022-12-11T02:50:20.284Z,100959.81
2022-12-11T02:52:48.504Z,100954.84
2022-12-11T02:55:15.918Z,100950.66
2022-12-11T02:57:49.182Z,100937.66
2022-12-11T03:00:16.688Z,100936.00
2022-12-11T03:02:43.485Z,100933.63
2022-12-11T03:05:11.509Z,100948.03
2022-12-11T03:07:41.489Z,100951.94
2022-12-11T03:10:09.701Z,100942.63
2022-12-11T03:12:41.316Z,100933.78
2022-12-11T03:15:13.963Z,100932.41
2022-12-11T03:17:51.676Z,100942.25
2022-12-11T03:20:39.815Z,100933.69
2022-12-11T03:23:28.486Z,100942.78
2022-12-11T03:26:06.781Z,100946.13
2022-12-11T03:28:47.787Z,100940.38
2022-12-11T03:31:22.167Z,100936.75
2022-12-11T03:33:49.676Z,100929.53
2022-12-11T03:36:24.501Z,100931.03
2022-12-11T03:39:00.358Z,100932.91
2022-12-11T03:41:27.880Z,100924.94
2022-12-11T03:43:56.900Z,100924.94
2022-12-11T03:46:27.955Z,100919.69
2022-12-11T03:48:54.818Z,100914.41
2022-12-11T03:51:21.655Z,100920.38
2022-12-11T03:53:48.378Z,100925.78
2022-12-11T03:56:18.577Z,100921.19
2022-12-11T03:58:45.031Z,100920.78
2022-12-11T04:01:11.805Z,100927.13
2022-12-11T04:03:38.476Z,100924.03
2022-12-11T04:06:05.043Z,100925.47
2022-12-11T04:08:31.508Z,100927.69
2022-12-11T04:11:16.549Z,100927.94
2022-12-11T04:13:42.975Z,100929.22
2022-12-11T04:16:09.593Z,100919.78
2022-12-11T04:18:54.665Z,100934.31
2022-12-11T04:21:40.056Z,100927.78
2022-12-11T04:24:16.686Z,100936.56
2022-12-11T04:26:44.527Z,100936.00
2022-12-11T04:29:11.059Z,100935.72
2022-12-11T04:31:37.522Z,100937.19
2022-12-11T04:34:03.943Z,100931.56
2022-12-11T04:36:30.500Z,100945.63
2022-12-11T04:38:56.995Z,100943.50
2022-12-11T04:41:23.406Z,100943.34
2022-12-11T04:43:49.886Z,100938.09
2022-12-11T04:46:21.991Z,100937.81
2022-12-11T04:48:53.852Z,100943.09
2022-12-11T04:51:23.638Z,100936.75
2022-12-11T04:53:50.028Z,100942.25
2022-12-11T04:56:17.214Z,100931.72
2022-12-11T04:58:44.370Z,100937.94
2022-12-11T05:01:16.669Z,100943.59
2022-12-11T05:03:43.529Z,100932.75
2022-12-11T05:06:10.481Z,100935.03
2022-12-11T05:08:40.171Z,100932.00
2022-12-11T05:11:10.083Z,100933.09
2022-12-11T05:13:36.867Z,100937.19
2022-12-11T05:16:05.234Z,100933.78
2022-12-11T05:18:31.840Z,100941.25
2022-12-11T05:21:04.120Z,100935.81
2022-12-11T05:23:30.823Z,100939.28
2022-12-11T05:25:59.434Z,100942.09
2022-12-11T05:28:27.802Z,100939.47
2022-12-11T05:31:05.905Z,100937.50
2022-12-11T05:33:34.381Z,100930.13
2022-12-11T05:36:03.450Z,100939.63
2022-12-11T05:38:30.126Z,100949.66
2022-12-11T05:41:01.809Z,100941.31
2022-12-11T05:43:30.180Z,100943.38
2022-12-11T05:45:57.437Z,100941.53
2022-12-11T05:48:23.869Z,100933.50
2022-12-11T05:51:01.027Z,100944.16
2022-12-11T05:53:28.012Z,100936.47
2022-12-11T05:55:55.050Z,100938.03
2022-12-11T05:58:21.995Z,100933.63
2022-12-11T06:00:48.620Z,100930.03
2022-12-11T06:03:15.198Z,100930.88
2022-12-11T06:05:42.619Z,100926.91
2022-12-11T06:08:09.184Z,100925.34
2022-12-11T06:10:35.674Z,100921.03
2022-12-11T06:13:02.118Z,100927.13
2022-12-11T06:15:28.683Z,100925.34
2022-12-11T06:17:56.150Z,100930.53
2022-12-11T06:20:23.023Z,100926.38
2022-12-11T06:22:49.519Z,100919.53
2022-12-11T06:25:15.955Z,100916.59
2022-12-11T06:27:42.360Z,100923.00
2022-12-11T06:30:09.408Z,100916.69
2022-12-11T06:32:35.856Z,100916.22
2022-12-11T06:35:02.338Z,100917.38
2022-12-11T06:37:28.713Z,100924.78
2022-12-11T06:39:55.259Z,100919.25
2022-12-11T06:42:22.237Z,100920.53
2022-12-11T06:44:48.814Z,100924.59
2022-12-11T06:47:15.212Z,100914.94
2022-12-11T06:49:41.664Z,100934.63
2022-12-11T06:52:08.160Z,100927.06
2022-12-11T06:54:34.821Z,100928.53
2022-12-11T06:57:01.242Z,100927.69
2022-12-11T06:59:27.663Z,100924.25
2022-12-11T07:01:54.097Z,100927.97
2022-12-11T07:04:24.689Z,100920.53
2022-12-11T07:06:51.687Z,100929.22
2022-12-11T07:09:18.333Z,100927.81
2022-12-11T07:11:44.973Z,100933.94
2022-12-11T07:14:11.609Z,100932.69
2022-12-11T07:16:38.198Z,100935.56
2022-12-11T07:19:05.094Z,100936.41
2022-12-11T07:21:31.499Z,100930.22
2022-12-11T07:23:58.735Z,100930.81
2022-12-11T07:26:25.191Z,100931.72
2022-12-11T07:28:51.871Z,100932.25
2022-12-11T07:31:21.430Z,100934.06
2022-12-11T07:33:48.003Z,100931.84
2022-12-11T07:36:15.347Z,100926.31
2022-12-11T07:38:41.915Z,100929.44
2022-12-11T07:41:11.584Z,100934.72
2022-12-11T07:43:38.027Z,100934.84
2022-12-11T07:46:12.577Z,100929.53
2022-12-11T07:48:40.778Z,100931.03
2022-12-11T07:51:11.895Z,100939.91
2022-12-11T07:53:38.914Z,100944.31
2022-12-11T07:56:05.789Z,100940.38
2022-12-11T07:58:32.222Z,100929.56
2022-12-11T08:00:58.787Z,100939.91
2022-12-11T08:03:25.356Z,100935.53
2022-12-11T08:05:52.758Z,100931.81
2022-12-11T08:08:19.941Z,100926.16
2022-12-11T08:10:46.436Z,100921.88
2022-12-11T08:13:12.897Z,100931.72
2022-12-11T08:15:39.412Z,100928.69
2022-12-11T08:18:05.847Z,100941.41
2022-12-11T08:20:32.312Z,100942.78
2022-12-11T08:22:59.300Z,100936.16
2022-12-11T08:25:25.897Z,100939.91
2022-12-11T08:27:52.354Z,100942.63
2022-12-11T08:30:18.813Z,100938.44
2022-12-11T08:32:45.214Z,100947.44
2022-12-11T08:35:11.913Z,100938.50
2022-12-11T08:37:38.505Z,100955.50
2022-12-11T08:40:05.462Z,100951.50
2022-12-11T08:42:31.867Z,100951.41
2022-12-11T08:44:58.248Z,100957.66
2022-12-11T08:47:24.926Z,100956.59
2022-12-11T08:49:51.490Z,100950.75
2022-12-11T08:52:18.057Z,100968.31
2022-12-11T08:54:44.609Z,100962.19
2022-12-11T08:57:11.034Z,100963.00
2022-12-11T08:59:37.649Z,100954.06
2022-12-11T09:02:04.045Z,100958.22
2022-12-11T09:04:30.435Z,100964.66
2022-12-11T09:06:56.886Z,100963.59
2022-12-11T09:09:23.372Z,100964.44
2022-12-11T09:11:50.286Z,100963.94
2022-12-11T09:14:16.860Z,100953.28
2022-12-11T09:16:43.264Z,100961.81
2022-12-11T09:19:13.902Z,100956.97
2022-12-11T09:21:41.344Z,100952.09
2022-12-11T09:24:09.415Z,100958.47
2022-12-11T09:26:35.879Z,100948.28
2022-12-11T09:29:04.547Z,100953.47
2022-12-11T09:31:34.889Z,100953.97
2022-12-11T09:34:04.689Z,100949.06
2022-12-11T09:36:31.684Z,100948.09
2022-12-11T09:39:02.685Z,100945.38
2022-12-11T09:41:36.564Z,100948.34
2022-12-11T09:44:21.808Z,100941.72
2022-12-11T09:46:48.806Z,100945.47
2022-12-11T09:49:42.476Z,100940.53
2022-12-11T09:52:33.077Z,100933.50
2022-12-11T09:55:02.006Z,100937.25
2022-12-11T09:57:47.969Z,100936.97
2022-12-11T10:00:39.183Z,100929.00
2022-12-11T10:03:27.264Z,100939.28
2022-12-11T10:06:08.018Z,100936.00
2022-12-11T10:09:06.768Z,100945.16
2022-12-11T10:12:04.939Z,100934.66
2022-12-11T10:14:53.629Z,100944.06
2022-12-11T10:17:23.393Z,100941.44
2022-12-11T10:19:49.972Z,100932.66
2022-12-11T10:22:24.077Z,100929.75
2022-12-11T10:25:10.577Z,100930.16
2022-12-11T10:27:39.365Z,100934.16
2022-12-11T10:30:13.228Z,100932.69
2022-12-11T10:32:53.043Z,100937.31
2022-12-11T10:35:27.122Z,100931.22
2022-12-11T10:37:58.463Z,100928.69
2022-12-11T10:40:25.963Z,100927.84
2022-12-11T10:42:54.359Z,100923.34
2022-12-11T10:45:20.998Z,100919.31
2022-12-11T10:47:47.467Z,100930.72
2022-12-11T10:50:25.356Z,100931.97
2022-12-11T10:52:52.871Z,100925.31
2022-12-11T10:55:22.166Z,100922.44
2022-12-11T10:58:04.270Z,100919.59
2022-12-11T11:00:37.696Z,100916.44
2022-12-11T11:03:17.819Z,100907.69
2022-12-11T11:05:49.208Z,100907.31
2022-12-11T11:08:19.401Z,100898.28
2022-12-11T11:10:59.052Z,100902.88
2022-12-11T11:13:30.042Z,100899.22
2022-12-11T11:16:05.564Z,100893.03
2022-12-11T11:18:33.058Z,100896.84
2022-12-11T11:21:00.625Z,100896.09
2022-12-11T11:23:27.323Z,100891.81
2022-12-11T11:26:01.743Z,100891.19
2022-12-11T11:28:30.792Z,100887.16
2022-12-11T11:31:01.553Z,100886.97
2022-12-11T11:33:28.651Z,100883.72
2022-12-11T11:36:01.712Z,100879.44
2022-12-11T11:38:50.027Z,100876.81
2022-12-11T11:41:31.874Z,100870.09
2022-12-11T11:44:01.034Z,100873.16
2022-12-11T11:46:36.732Z,100873.53
2022-12-11T11:49:25.146Z,100874.03
2022-12-11T11:52:01.103Z,100879.66
2022-12-11T11:54:41.030Z,100887.63
2022-12-11T11:57:29.202Z,100879.50
2022-12-11T12:00:10.808Z,100887.63
2022-12-11T12:02:37.805Z,100880.81
2022-12-11T12:05:04.790Z,100882.31
2022-12-11T12:07:42.760Z,100883.09
2022-12-11T12:10:35.482Z,100882.69
2022-12-11T12:13:48.502Z,100882.69
2022-12-11T12:16:54.191Z,100882.25
2022-12-11T12:19:39.270Z,100882.34
2022-12-11T12:22:21.163Z,100886.13
2022-12-11T12:24:59.081Z,100883.47
2022-12-11T12:27:52.714Z,100879.66
2022-12-11T12:30:22.904Z,100882.47
2022-12-11T12:32:59.304Z,100880.25
2022-12-11T12:35:41.643Z,100879.81
2022-12-11T12:38:19.641Z,100884.34
2022-12-11T12:40:56.785Z,100869.59
2022-12-11T12:43:32.400Z,100880.28
2022-12-11T12:46:11.633Z,100879.84
2022-12-11T12:48:38.267Z,100878.03
2022-12-11T12:51:05.217Z,100882.66
2022-12-11T12:53:34.618Z,100880.09
2022-12-11T12:56:02.157Z,100877.72
2022-12-11T12:58:30.713Z,100882.81
2022-12-11T13:01:12.043Z,100885.94
2022-12-11T13:04:04.628Z,100879.13
2022-12-11T13:06:38.148Z,100876.16
2022-12-11T13:09:13.293Z,100885.22
2022-12-11T13:11:39.836Z,100879.81
2022-12-11T13:14:15.522Z,100879.91
2022-12-11T13:16:43.870Z,100875.81
2022-12-11T13:19:25.572Z,100877.63
2022-12-11T13:22:23.480Z,100879.91
2022-12-11T13:24:53.229Z,100872.66
2022-12-11T13:27:26.475Z,100872.78
2022-12-11T13:30:05.823Z,100865.97
2022-12-11T13:32:33.141Z,100871.63
2022-12-11T13:35:04.777Z,100874.25
2022-12-11T13:37:39.932Z,100878.41
2022-12-11T13:40:10.117Z,100877.63
2022-12-11T13:42:44.377Z,100876.75
2022-12-11T13:45:19.961Z,100875.63
2022-12-11T13:47:47.663Z,100878.63
2022-12-11T13:50:25.667Z,100888.41
2022-12-11T13:52:56.182Z,100886.28
2022-12-11T13:55:33.990Z,100890.91
2022-12-11T13:58:01.066Z,100890.91
2022-12-11T14:00:32.625Z,100882.69
2022-12-11T14:03:02.259Z,100891.41
2022-12-11T14:05:29.554Z,100887.84
2022-12-11T14:07:57.449Z,100886.31
2022-12-11T14:10:26.422Z,100881.88
2022-12-11T14:13:04.654Z,100887.09
2022-12-11T14:15:32.530Z,100885.63
2022-12-11T14:18:00.486Z,100876.44
2022-12-11T14:20:30.984Z,100880.75
2022-12-11T14:23:17.323Z,100882.28
2022-12-11T14:25:55.707Z,100885.06
2022-12-11T14:28:23.330Z,100885.13
2022-12-11T14:30:51.238Z,100891.59
2022-12-11T14:33:19.505Z,100888.13
2022-12-11T14:35:47.024Z,100892.22
2022-12-11T14:38:17.476Z,100888.25
2022-12-11T14:40:47.580Z,100879.66
2022-12-11T14:43:21.677Z,100881.41
2022-12-11T14:45:49.567Z,100874.06
2022-12-11T14:48:27.382Z,100875.94
2022-12-11T14:50:55.720Z,100873.03
2022-12-11T14:53:26.472Z,100870.50
2022-12-11T14:55:53.214Z,100889.44
2022-12-11T14:58:25.022Z,100891.19
2022-12-11T15:01:06.301Z,100894.72
2022-12-11T15:03:42.511Z,100898.81
2022-12-11T15:06:27.804Z,100892.31
2022-12-11T15:08:54.757Z,100893.88
2022-12-11T15:11:21.356Z,100895.91
2022-12-11T15:13:59.291Z,100886.81
2022-12-11T15:16:28.013Z,100890.69
2022-12-11T15:18:55.422Z,100886.44
2022-12-11T15:21:32.944Z,100891.38
2022-12-11T15:24:02.258Z,100893.88
2022-12-11T15:26:41.753Z,100897.59
2022-12-11T15:29:30.202Z,100893.88
2022-12-11T15:32:18.680Z,100896.03
2022-12-11T15:34:48.447Z,100896.31
2022-12-11T15:37:26.604Z,100901.63
2022-12-11T15:39:57.749Z,100909.19
2022-12-11T15:42:32.941Z,100904.16
2022-12-11T15:44:59.856Z,100905.09
2022-12-11T15:47:28.124Z,100912.69
2022-12-11T15:49:58.204Z,100911.00
2022-12-11T15:52:25.100Z,100917.47
2022-12-11T15:54:51.512Z,100904.34
2022-12-11T15:57:20.794Z,100909.81
2022-12-11T15:59:52.492Z,100917.03
2022-12-11T16:02:19.658Z,100917.97
2022-12-11T16:04:46.286Z,100913.00
2022-12-11T16:07:18.232Z,100914.38
2022-12-11T16:09:45.585Z,100930.47
2022-12-11T16:12:13.831Z,100918.47
2022-12-11T16:14:41.418Z,100924.47
2022-12-11T16:17:08.894Z,100926.53
2022-12-11T16:19:36.433Z,100923.00
2022-12-11T16:22:03.778Z,100909.84
2022-12-11T16:24:30.317Z,100910.28
2022-12-11T16:26:56.953Z,100910.13
2022-12-11T16:29:23.423Z,100907.63
2022-12-11T16:31:50.069Z,100911.03
2022-12-11T16:34:16.698Z,100919.53
2022-12-11T16:36:43.206Z,100917.47
2022-12-11T16:39:11.987Z,100915.06
2022-12-11T16:41:38.927Z,100912.97
2022-12-11T16:44:05.560Z,100914.56
2022-12-11T16:46:32.013Z,100915.72
2022-12-11T16:48:58.432Z,100908.81
2022-12-11T16:51:24.823Z,100906.16
2022-12-11T16:53:51.683Z,100910.88
2022-12-11T16:56:18.285Z,100919.91
2022-12-11T16:58:44.727Z,100918.84
2022-12-11T17:01:15.196Z,100903.03
2022-12-11T17:03:43.393Z,100904.16
2022-12-11T17:06:11.577Z,100912.31
2022-12-11T17:08:38.073Z,100907.28
2022-12-11T17:11:15.865Z,100908.09
2022-12-11T17:13:42.644Z,100906.94
2022-12-11T17:16:11.429Z,100904.91
2022-12-11T17:18:38.430Z,100908.38
2022-12-11T17:21:09.618Z,100910.72
2022-12-11T17:23:36.163Z,100904.38
2022-12-11T17:26:02.820Z,100906.91
2022-12-11T17:28:29.778Z,100904.38
2022-12-11T17:30:56.870Z,100908.00
2022-12-11T17:33:24.016Z,100910.59
2022-12-11T17:35:50.528Z,100919.81
2022-12-11T17:38:16.935Z,100913.88
2022-12-11T17:40:44.290Z,100914.66
2022-12-11T17:43:11.862Z,100916.44
2022-12-11T17:45:56.689Z,100912.22
2022-12-11T17:48:23.269Z,100924.09
2022-12-11T17:50:52.955Z,100917.06
2022-12-11T17:53:20.810Z,100908.72
2022-12-11T17:55:48.338Z,100910.22
2022-12-11T17:58:17.362Z,100916.41
2022-12-11T18:00:46.285Z,100919.06
2022-12-11T18:03:15.215Z,100921.34
2022-12-11T18:05:44.937Z,100920.28
2022-12-11T18:08:16.012Z,100910.00
2022-12-11T18:10:43.015Z,100920.63
2022-12-11T18:13:10.008Z,100911.91
2022-12-11T18:15:37.755Z,100915.34
2022-12-11T18:18:04.944Z,100912.03
2022-12-11T18:20:32.202Z,100909.63
2022-12-11T18:22:58.870Z,100912.50
2022-12-11T18:25:25.440Z,100894.56
2022-12-11T18:27:52.120Z,100902.66
2022-12-11T18:30:18.626Z,100904.13
2022-12-11T18:32:45.808Z,100904.31
2022-12-11T18:35:12.796Z,100891.91
2022-12-11T18:37:39.526Z,100895.09
2022-12-11T18:40:07.278Z,100892.91
2022-12-11T18:42:34.119Z,100892.56
2022-12-11T18:45:01.161Z,100902.44
2022-12-11T18:47:27.734Z,100902.25
2022-12-11T18:49:54.392Z,100901.28
2022-12-11T18:52:20.812Z,100898.91
2022-12-11T18:54:47.541Z,100898.34
2022-12-11T18:57:14.085Z,100891.94
2022-12-11T18:59:40.691Z,100896.72
2022-12-11T19:02:07.558Z,100899.44
2022-12-11T19:04:36.064Z,100894.09
2022-12-11T19:07:02.649Z,100897.53
2022-12-11T19:09:32.825Z,100889.31
2022-12-11T19:12:03.918Z,100891.28
2022-12-11T19:14:30.580Z,100899.13
2022-12-11T19:16:57.112Z,100895.94
2022-12-11T19:19:23.689Z,100907.50
2022-12-11T19:21:50.652Z,100899.56
2022-12-11T19:24:21.645Z,100900.19
2022-12-11T19:26:48.170Z,100899.34
2022-12-11T19:29:22.711Z,100902.41
2022-12-11T19:31:49.532Z,100914.00
2022-12-11T19:34:16.347Z,100907.59
2022-12-11T19:36:42.824Z,100906.03
2022-12-11T19:39:12.992Z,100918.66
2022-12-11T19:41:40.845Z,100917.59
2022-12-11T19:44:07.983Z,100919.75
2022-12-11T19:46:35.204Z,100922.06
2022-12-11T19:49:01.800Z,100923.44
2022-12-11T19:51:33.831Z,100917.44
2022-12-11T19:54:02.835Z,100922.41
2022-12-11T19:56:29.774Z,100925.81
2022-12-11T19:58:56.724Z,100928.41
2022-12-11T20:01:31.064Z,100920.22
2022-12-11T20:04:00.196Z,100923.19
2022-12-11T20:06:28.536Z,100925.25
2022-12-11T20:08:55.034Z,100915.63
2022-12-11T20:11:22.031Z,100924.38
2022-12-11T20:13:49.367Z,100927.84
2022-12-11T20:16:16.605Z,100926.88
2022-12-11T20:18:43.256Z,100912.28
2022-12-11T20:21:12.846Z,100916.28
2022-12-11T20:23:39.390Z,100917.63
2022-12-11T20:26:10.636Z,100914.19
2022-12-11T20:28:37.254Z,100908.22
2022-12-11T20:31:22.374Z,100915.88
2022-12-11T20:33:49.946Z,100916.75
2022-12-11T20:36:18.335Z,100920.81
2022-12-11T20:38:45.203Z,100925.41
2022-12-11T20:41:13.895Z,100925.41
2022-12-11T20:43:40.909Z,100932.97
2022-12-11T20:46:12.282Z,100927.38
2022-12-11T20:48:39.651Z,100926.84
2022-12-11T20:51:07.950Z,100929.38
2022-12-11T20:53:35.037Z,100933.44
2022-12-11T20:56:01.872Z,100926.31
2022-12-11T20:58:28.318Z,100933.22
2022-12-11T21:00:55.027Z,100943.16
2022-12-11T21:03:21.520Z,100935.25
2022-12-11T21:05:48.020Z,100934.44
2022-12-11T21:08:14.609Z,100935.69
2022-12-11T21:10:44.705Z,100936.34
2022-12-11T21:13:11.314Z,100938.53
2022-12-11T21:15:38.866Z,100938.72
2022-12-11T21:18:06.607Z,100937.88
2022-12-11T21:20:33.389Z,100937.56
2022-12-11T21:22:59.909Z,100945.53
2022-12-11T21:25:26.530Z,100942.91
2022-12-11T21:27:53.016Z,100949.47
2022-12-11T21:30:19.576Z,100950.72
2022-12-11T21:32:46.106Z,100957.88
2022-12-11T21:35:12.968Z,100948.59
2022-12-11T21:37:41.715Z,100952.00
2022-12-11T21:40:09.275Z,100933.84
2022-12-11T21:42:35.697Z,100940.03
2022-12-11T21:47:49.691Z,100945.38
2022-12-11T21:50:16.816Z,100939.41
2022-12-11T21:52:43.422Z,100937.41
2022-12-11T21:55:11.856Z,100951.16
2022-12-11T21:57:38.628Z,100947.69
2022-12-11T22:00:06.318Z,100939.19
2022-12-11T22:02:37.487Z,100945.28
2022-12-11T22:05:07.656Z,100952.72
2022-12-11T22:07:34.350Z,100947.88
2022-12-11T22:10:00.802Z,100953.34
2022-12-11T22:12:28.193Z,100955.31
2022-12-11T22:14:54.824Z,100953.06
2022-12-11T22:17:21.476Z,100943.88
2022-12-11T22:19:48.088Z,100947.72
2022-12-11T22:22:14.827Z,100946.66
2022-12-11T22:24:41.278Z,100944.22
2022-12-11T22:27:07.770Z,100944.47
2022-12-11T22:29:35.061Z,100947.72
2022-12-11T22:32:01.708Z,100949.06
2022-12-11T22:34:28.156Z,100956.47
2022-12-11T22:36:54.871Z,100945.97
2022-12-11T22:39:21.279Z,100945.28
2022-12-11T22:41:47.918Z,100948.94
2022-12-11T22:44:16.905Z,100946.50
2022-12-11T22:46:49.497Z,100941.84
2022-12-11T22:49:16.693Z,100938.34
2022-12-11T22:51:43.174Z,100945.97
2022-12-11T22:54:09.635Z,100936.53
2022-12-11T22:56:36.078Z,100942.88
2022-12-11T22:59:02.529Z,100946.78
2022-12-11T23:01:29.005Z,100946.88
2022-12-11T23:03:55.440Z,100944.13
2022-12-11T23:06:24.699Z,100947.34
2022-12-11T23:08:52.592Z,100945.19
2022-12-11T23:11:26.332Z,100948.75
2022-12-11T23:13:53.668Z,100940.59
2022-12-11T23:16:21.332Z,100945.84
2022-12-11T23:18:47.930Z,100946.88
2022-12-11T23:21:14.485Z,100952.78
2022-12-11T23:23:41.165Z,100941.47
2022-12-11T23:26:09.202Z,100938.41
2022-12-11T23:28:36.172Z,100937.97
2022-12-11T23:31:02.963Z,100942.41
2022-12-11T23:33:29.539Z,100943.84
2022-12-11T23:35:55.953Z,100941.16
2022-12-11T23:38:22.506Z,100946.16
2022-12-11T23:40:48.969Z,100940.25
2022-12-11T23:43:15.430Z,100931.19
2022-12-11T23:45:45.982Z,100940.25
2022-12-11T23:48:13.490Z,100942.44
2022-12-11T23:50:40.778Z,100933.81
2022-12-11T23:53:07.415Z,100939.13
2022-12-11T23:55:34.040Z,100937.50
2022-12-11T23:58:00.481Z,100945.47
